createdAt,value
2022-08-05T00:02:24.289Z,21.70
2022-08-05T00:07:59.998Z,21.60
2022-08-05T00:13:03.202Z,21.40
2022-08-05T00:18:06.858Z,21.30
2022-08-05T00:23:13.226Z,21.10
2022-08-05T00:28:29.707Z,21.00
2022-08-05T00:34:54.423Z,20.90
2022-08-05T00:38:56.658Z,20.90
2022-08-05T00:44:04.829Z,20.70
2022-08-05T00:49:08.732Z,20.70
2022-08-05T00:54:17.316Z,20.70
2022-08-05T00:59:23.941Z,20.70
2022-08-05T01:04:29.776Z,20.70
2022-08-05T01:09:33.525Z,20.70
2022-08-05T01:14:46.020Z,20.80
2022-08-05T01:20:01.406Z,21.20
2022-08-05T01:25:53.643Z,21.10
2022-08-05T01:31:03.586Z,21.00
2022-08-05T01:36:20.913Z,20.80
2022-08-05T01:41:28.991Z,20.80
2022-08-05T01:46:42.134Z,20.70
2022-08-05T01:51:51.985Z,20.60
2022-08-05T01:58:12.975Z,20.50
2022-08-05T02:02:29.316Z,20.40
2022-08-05T02:07:36.181Z,20.60
2022-08-05T02:12:51.023Z,21.10
2022-08-05T02:18:31.262Z,21.50
2022-08-05T02:23:30.311Z,21.70
2022-08-05T02:28:41.694Z,21.60
2022-08-05T02:33:57.709Z,21.60
2022-08-05T02:39:08.843Z,21.30
2022-08-05T02:44:17.382Z,21.00
2022-08-05T02:49:22.478Z,20.80
2022-08-05T02:54:34.890Z,20.70
2022-08-05T02:59:50.218Z,20.60
2022-08-05T03:04:59.230Z,20.40
2022-08-05T03:10:02.654Z,20.40
2022-08-05T03:15:07.548Z,20.20
2022-08-05T03:20:16.246Z,20.00
2022-08-05T03:25:33.904Z,19.80
2022-08-05T03:30:47.378Z,19.70
2022-08-05T03:35:52.917Z,19.60
2022-08-05T03:40:58.847Z,19.60
2022-08-05T03:46:02.536Z,19.70
2022-08-05T03:52:38.148Z,19.70
2022-08-05T03:56:42.436Z,19.70
2022-08-05T04:01:48.477Z,19.60
2022-08-05T04:06:54.359Z,19.50
2022-08-05T04:11:59.534Z,19.80
2022-08-05T04:17:03.650Z,19.80
2022-08-05T04:22:12.061Z,19.60
2022-08-05T04:27:15.828Z,19.60
2022-08-05T04:32:31.060Z,19.50
2022-08-05T04:38:00.870Z,19.40
2022-08-05T04:43:04.349Z,19.50
2022-08-05T04:48:16.416Z,19.60
2022-08-05T04:53:33.376Z,19.50
2022-08-05T04:58:37.057Z,19.50
2022-08-05T05:03:42.716Z,19.40
2022-08-05T05:08:49.944Z,19.50
2022-08-05T05:13:55.377Z,19.80
2022-08-05T05:19:18.831Z,20.10
2022-08-05T05:30:04.820Z,20.70
2022-08-05T05:35:09.063Z,21.10
2022-08-05T05:40:16.405Z,21.50
2022-08-05T05:45:23.236Z,21.80
2022-08-05T05:50:28.389Z,22.00
2022-08-05T05:55:51.507Z,22.10
2022-08-05T06:00:56.438Z,22.30
2022-08-05T06:06:00.411Z,22.70
2022-08-05T06:11:06.044Z,23.00
2022-08-05T06:16:31.700Z,24.80
2022-08-05T06:21:36.898Z,28.80
2022-08-05T06:26:52.137Z,33.00
2022-08-05T06:31:55.794Z,35.20
2022-08-05T06:37:00.805Z,36.30
2022-08-05T06:42:06.155Z,37.80
2022-08-05T06:47:30.326Z,37.40
2022-08-05T06:52:36.887Z,37.60
2022-08-05T06:58:03.185Z,38.40
2022-08-05T07:03:07.544Z,38.20
2022-08-05T07:08:13.234Z,38.60
2022-08-05T07:13:58.698Z,39.60
2022-08-05T07:18:58.424Z,39.70
2022-08-05T07:24:05.732Z,39.20
2022-08-05T07:29:16.501Z,38.80
2022-08-05T07:34:27.431Z,37.80
2022-08-05T07:40:26.339Z,37.80
2022-08-05T07:44:56.909Z,37.10
2022-08-05T07:50:06.571Z,37.90
2022-08-05T07:55:15.804Z,37.50
2022-08-05T08:00:35.837Z,36.90
2022-08-05T08:05:39.516Z,38.20
2022-08-05T08:10:48.778Z,39.30
2022-08-05T08:16:34.424Z,39.90
2022-08-05T08:21:17.797Z,38.50
2022-08-05T08:26:26.863Z,37.80
2022-08-05T08:31:34.714Z,37.00
2022-08-05T08:36:48.889Z,37.20
2022-08-05T08:42:00.009Z,37.50
2022-08-05T08:47:47.405Z,37.70
2022-08-05T08:52:34.536Z,37.40
2022-08-05T08:57:42.362Z,35.40
2022-08-05T09:03:03.364Z,33.00
2022-08-05T09:08:08.161Z,32.00
2022-08-05T09:18:44.550Z,34.70
2022-08-05T09:23:47.930Z,35.80
2022-08-05T09:28:55.415Z,36.80
2022-08-05T09:34:02.717Z,37.10
2022-08-05T09:39:16.400Z,36.60
2022-08-05T09:44:35.436Z,37.10
2022-08-05T09:50:01.056Z,36.90
2022-08-05T09:55:56.586Z,37.70
2022-08-05T10:00:30.860Z,37.80
2022-08-05T10:05:38.440Z,37.60
2022-08-05T10:10:53.878Z,36.80
2022-08-05T10:15:58.684Z,35.60
2022-08-05T10:21:11.742Z,36.00
2022-08-05T10:26:24.178Z,36.10
2022-08-05T10:32:51.522Z,35.50
2022-08-05T10:36:53.673Z,34.40
2022-08-05T10:42:03.735Z,33.20
2022-08-05T10:47:26.280Z,32.50
2022-08-05T10:52:49.468Z,32.50
2022-08-05T10:58:14.871Z,33.90
2022-08-05T11:03:23.380Z,34.10
2022-08-05T11:08:37.432Z,34.30
2022-08-05T11:13:57.752Z,33.70
2022-08-05T11:20:15.713Z,33.60
2022-08-05T11:26:04.585Z,33.60
2022-08-05T11:31:56.361Z,33.80
2022-08-05T11:36:52.973Z,34.30
2022-08-05T11:42:02.338Z,34.50
2022-08-05T11:47:15.259Z,34.30
2022-08-05T11:52:29.235Z,34.00
2022-08-05T11:58:08.289Z,33.90
2022-08-05T12:02:58.194Z,34.20
2022-08-05T12:08:03.609Z,33.70
2022-08-05T12:13:27.888Z,33.00
2022-08-05T12:18:40.545Z,33.60
2022-08-05T12:24:00.015Z,33.60
2022-08-05T12:29:16.158Z,33.60
2022-08-05T12:34:23.602Z,34.20
2022-08-05T12:39:37.293Z,34.30
2022-08-05T12:44:47.589Z,33.90
2022-08-05T12:50:03.018Z,33.90
2022-08-05T12:55:22.276Z,33.90
2022-08-05T13:02:00.103Z,33.70
2022-08-05T13:05:54.713Z,33.30
2022-08-05T13:11:02.306Z,33.60
2022-08-05T13:16:16.681Z,33.40
2022-08-05T13:21:20.232Z,33.60
2022-08-05T13:26:30.133Z,33.40
2022-08-05T13:32:04.315Z,33.30
2022-08-05T13:36:58.431Z,33.20
2022-08-05T13:42:01.717Z,33.30
2022-08-05T13:47:09.054Z,33.60
2022-08-05T13:52:16.101Z,33.80
2022-08-05T13:57:19.711Z,33.40
2022-08-05T14:08:00.844Z,31.80
2022-08-05T14:13:07.542Z,31.20
2022-08-05T14:18:14.915Z,31.10
2022-08-05T14:23:25.306Z,30.90
2022-08-05T14:28:30.559Z,30.60
2022-08-05T14:33:59.316Z,29.20
2022-08-05T14:38:59.181Z,28.10
2022-08-05T14:44:10.067Z,27.80
2022-08-05T14:49:25.462Z,27.70
2022-08-05T14:54:52.798Z,27.80
2022-08-05T14:59:56.732Z,28.70
2022-08-05T15:05:01.532Z,29.00
2022-08-05T15:10:12.260Z,29.00
2022-08-05T15:15:15.860Z,29.00
2022-08-05T15:20:24.700Z,28.80
2022-08-05T15:25:50.933Z,28.40
2022-08-05T15:30:53.105Z,28.10
2022-08-05T15:35:59.073Z,27.50
2022-08-05T15:41:22.430Z,27.70
2022-08-05T15:46:27.441Z,27.80
2022-08-05T15:52:04.306Z,28.00
2022-08-05T15:56:55.965Z,28.30
2022-08-05T16:01:59.565Z,28.40
2022-08-05T16:07:15.788Z,28.50
2022-08-05T16:12:21.311Z,28.70
2022-08-05T16:17:25.574Z,28.60
2022-08-05T16:22:33.984Z,28.50
2022-08-05T16:28:01.014Z,28.80
2022-08-05T16:33:03.839Z,28.50
2022-08-05T16:38:23.851Z,28.40
2022-08-05T16:43:31.556Z,28.40
2022-08-05T16:48:37.007Z,28.30
2022-08-05T16:54:02.488Z,27.90
2022-08-05T16:59:10.474Z,27.40
2022-08-05T17:04:18.645Z,27.10
2022-08-05T17:09:39.055Z,27.00
2022-08-05T17:14:55.319Z,26.70
2022-08-05T17:19:58.565Z,26.80
2022-08-05T17:25:09.584Z,26.80
2022-08-05T17:30:30.224Z,26.70
2022-08-05T17:36:08.111Z,26.60
2022-08-05T17:41:11.666Z,26.40
2022-08-05T17:46:33.634Z,26.20
2022-08-05T17:51:40.519Z,25.90
2022-08-05T17:56:48.970Z,25.60
2022-08-05T18:02:10.770Z,25.30
2022-08-05T18:07:20.505Z,25.20
2022-08-05T18:12:48.772Z,25.00
2022-08-05T18:18:00.987Z,24.80
2022-08-05T18:28:56.543Z,24.70
2022-08-05T18:33:59.951Z,24.60
2022-08-05T18:39:06.438Z,24.50
2022-08-05T18:44:34.916Z,24.40
2022-08-05T18:50:02.134Z,24.30
2022-08-05T18:55:10.301Z,24.10
2022-08-05T19:00:24.395Z,23.90
2022-08-05T19:06:11.823Z,23.70
2022-08-05T19:11:08.884Z,23.50
2022-08-05T19:16:28.501Z,23.40
2022-08-05T19:21:36.116Z,23.30
2022-08-05T19:26:44.080Z,23.10
2022-08-05T19:32:01.351Z,23.00
2022-08-05T19:37:06.662Z,22.90
2022-08-05T19:42:10.187Z,22.80
2022-08-05T19:47:23.860Z,22.80
2022-08-05T19:52:32.442Z,22.70
2022-08-05T19:57:47.281Z,22.60
2022-08-05T20:03:00.950Z,22.50
2022-08-05T20:08:11.815Z,22.40
2022-08-05T20:13:15.555Z,22.40
2022-08-05T20:18:33.187Z,22.20
2022-08-05T20:23:50.376Z,22.20
2022-08-05T20:28:58.058Z,22.20
2022-08-05T20:34:05.663Z,22.20
2022-08-05T20:39:16.451Z,21.90
2022-08-05T20:44:30.363Z,21.50
2022-08-05T20:49:39.336Z,20.90
2022-08-05T20:55:15.891Z,20.50
2022-08-05T21:00:21.065Z,19.90
2022-08-05T21:05:47.776Z,19.30
2022-08-05T21:10:58.503Z,19.00
2022-08-05T21:16:02.096Z,18.90
2022-08-05T21:21:10.554Z,18.80
2022-08-05T21:26:15.024Z,18.70
2022-08-05T21:31:20.361Z,18.70
2022-08-05T21:36:29.923Z,18.70
2022-08-05T21:41:37.227Z,18.80
2022-08-05T21:46:41.880Z,18.70
2022-08-05T21:52:21.871Z,18.60
2022-08-05T21:57:30.209Z,18.70
2022-08-05T22:02:34.086Z,18.80
2022-08-05T22:07:59.518Z,18.80
2022-08-05T22:13:09.228Z,18.70
2022-08-05T22:24:13.179Z,18.80
2022-08-05T22:29:36.046Z,18.80
2022-08-05T22:34:39.249Z,18.80
2022-08-05T22:39:45.257Z,18.70
2022-08-05T22:44:56.669Z,18.70
2022-08-05T22:50:18.084Z,18.70
2022-08-05T22:55:26.123Z,18.60
2022-08-05T23:00:32.376Z,18.60
2022-08-05T23:05:36.468Z,18.70
2022-08-05T23:10:43.985Z,18.60
2022-08-05T23:15:50.310Z,18.60
2022-08-05T23:20:53.717Z,18.50
2022-08-05T23:25:58.239Z,18.50
2022-08-05T23:31:17.141Z,18.50
2022-08-05T23:41:50.099Z,18.50
2022-08-05T23:46:53.330Z,18.40
2022-08-05T23:52:16.773Z,18.30
2022-08-05T23:57:22.485Z,18.30
